This is the latest recevied weather packets stored in our database for station/object KD9ZDW. If no packets are shown the sender has not sent any weather packets the latest 10 day(s).
| Time | Temp. | Humidity | Pressure | Rain* | Wind** | Luminosity | Snow |
|---|---|---|---|---|---|---|---|
| 1777838834 | 12.78° C | 58% | 1015.8 hPa | 0 mm | - | 261 W/m² | - |
| 1777838530 | 12.78° C | 58% | 1015.7 hPa | 0 mm | - | 234 W/m² | - |
| 1777838227 | 13.33° C | 56% | 1015.8 hPa | 0 mm | - | 95 W/m² | - |
| 1777837924 | 14.44° C | 53% | 1015.7 hPa | 0 mm | - | 103 W/m² | - |
| 1777837621 | 15° C | 48% | 1015.4 hPa | 0 mm | - | 163 W/m² | - |
| 1777837316 | 15° C | 46% | 1015.3 hPa | 0 mm | - | 212 W/m² | - |
| 1777837013 | 15° C | 45% | 1015.3 hPa | 0 mm | - | 152 W/m² | - |
| 1777836709 | 15° C | 45% | 1015.4 hPa | 0 mm | - | 216 W/m² | - |
| 1777836405 | 15.56° C | 44% | 1015.3 hPa | 0 mm | - | 194 W/m² | - |
| 1777836101 | 15.56° C | 45% | 1015.5 hPa | 0 mm | - | 257 W/m² | - |
| 1777835798 | 15° C | 45% | 1015.6 hPa | 0 mm | - | 260 W/m² | - |
| 1777835495 | 15.56° C | 43% | 1015.4 hPa | 0 mm | - | 202 W/m² | - |
| 1777835192 | 15° C | 46% | 1015.6 hPa | 0 mm | - | 178 W/m² | - |
| 1777834888 | 15° C | 45% | 1015.6 hPa | 0 mm | - | 229 W/m² | - |
| 1777834585 | 15° C | 44% | 1015.6 hPa | 0 mm | - | 218 W/m² | - |
| 1777834280 | 15.56° C | 43% | 1015.6 hPa | 0 mm | - | 225 W/m² | - |
| 1777833976 | 15.56° C | 43% | 1015.6 hPa | 0 mm | - | 262 W/m² | - |
| 1777833672 | 15.56° C | 44% | 1015.6 hPa | 0 mm | - | 315 W/m² | - |
| 1777833369 | 15.56° C | 42% | 1015.8 hPa | 0 mm | - | 407 W/m² | - |
| 1777833066 | 15.56° C | 41% | 1015.8 hPa | 0 mm | - | 272 W/m² | - |
| 1777832765 | 16.11° C | 42% | 1016 hPa | 0 mm | - | 291 W/m² | - |
| 1777832462 | 15.56° C | 42% | 1015.9 hPa | 0 mm | - | 372 W/m² | - |
| 1777832159 | 15.56° C | 42% | 1016.1 hPa | 0 mm | - | 312 W/m² | - |
| 1777831855 | 15.56° C | 41% | 1016.2 hPa | 0 mm | - | 413 W/m² | - |
| 1777831553 | 15.56° C | 41% | 1016.3 hPa | 0 mm | - | 433 W/m² | - |
* Rain latest hour (hover to see other rain measurements)
** Current wind speed in m/s (hover to see current wind gust speed)